createdAt,value
2023-05-06T00:00:02.865Z,7.200
2023-05-06T00:01:03.462Z,7.000
2023-05-06T00:02:02.671Z,8.100
2023-05-06T00:03:03.648Z,7.900
2023-05-06T00:04:04.721Z,7.300
2023-05-06T00:05:03.362Z,7.700
2023-05-06T00:06:02.877Z,8.100
2023-05-06T00:07:03.114Z,7.500
2023-05-06T00:08:02.760Z,7.300
2023-05-06T00:09:03.000Z,8.000
2023-05-06T00:10:03.188Z,8.100
2023-05-06T00:11:02.311Z,7.400
2023-05-06T00:12:02.498Z,8.200
2023-05-06T00:13:02.967Z,8.100
2023-05-06T00:14:03.259Z,10.200
2023-05-06T00:15:02.435Z,9.000
2023-05-06T00:16:02.896Z,7.800
2023-05-06T00:17:06.223Z,8.600
2023-05-06T00:19:03.165Z,7.800
2023-05-06T00:20:02.310Z,8.300
2023-05-06T00:21:02.488Z,8.300
2023-05-06T00:22:02.745Z,8.300
2023-05-06T00:23:02.983Z,8.800
2023-05-06T00:24:03.172Z,7.800
2023-05-06T00:25:02.342Z,8.000
2023-05-06T00:26:02.658Z,8.300
2023-05-06T00:27:02.986Z,8.500
2023-05-06T00:28:03.208Z,8.300
2023-05-06T00:29:02.345Z,7.700
2023-05-06T00:30:02.620Z,8.400
2023-05-06T00:31:02.844Z,7.800
2023-05-06T00:32:03.760Z,9.100
2023-05-06T00:34:02.727Z,7.400
2023-05-06T00:35:02.895Z,8.200
2023-05-06T00:36:03.156Z,9.500
2023-05-06T00:37:02.328Z,10.400
2023-05-06T00:38:02.487Z,9.800
2023-05-06T00:39:02.741Z,7.800
2023-05-06T00:40:02.897Z,7.600
2023-05-06T00:41:03.128Z,8.600
2023-05-06T00:42:02.439Z,8.000
2023-05-06T00:43:02.583Z,8.200
2023-05-06T00:44:02.813Z,8.300
2023-05-06T00:45:03.015Z,7.500
2023-05-06T00:46:02.910Z,7.700
2023-05-06T00:47:06.223Z,7.600
2023-05-06T00:49:03.054Z,8.400
2023-05-06T00:50:03.231Z,8.100
2023-05-06T00:51:02.413Z,7.800
2023-05-06T00:52:02.586Z,7.900
2023-05-06T00:53:02.809Z,7.800
2023-05-06T00:54:03.037Z,7.800
2023-05-06T00:55:03.222Z,6.900
2023-05-06T00:56:02.658Z,7.700
2023-05-06T00:57:02.910Z,6.800
2023-05-06T00:58:03.092Z,7.700
2023-05-06T00:59:02.250Z,9.300
2023-05-06T01:00:02.448Z,9.300
2023-05-06T01:01:02.912Z,9.500
2023-05-06T01:02:03.387Z,9.300
2023-05-06T01:03:03.253Z,8.500
2023-05-06T01:04:03.630Z,7.400
2023-05-06T01:05:03.329Z,7.200
2023-05-06T01:07:03.235Z,7.700
2023-05-06T01:08:02.479Z,7.600
2023-05-06T01:09:02.647Z,7.000
2023-05-06T01:10:02.869Z,7.200
2023-05-06T01:11:03.105Z,7.700
2023-05-06T01:12:02.241Z,7.000
2023-05-06T01:13:02.714Z,7.200
2023-05-06T01:14:03.107Z,6.700
2023-05-06T01:15:02.394Z,7.400
2023-05-06T01:16:02.972Z,7.600
2023-05-06T01:19:02.555Z,7.500
2023-05-06T01:20:02.734Z,7.500
2023-05-06T01:21:02.929Z,7.300
2023-05-06T01:22:03.218Z,7.200
2023-05-06T01:23:02.688Z,7.500
2023-05-06T01:24:03.594Z,7.000
2023-05-06T01:25:02.765Z,7.600
2023-05-06T01:26:03.157Z,8.100
2023-05-06T01:27:02.419Z,7.700
2023-05-06T01:28:02.648Z,7.400
2023-05-06T01:29:02.897Z,7.600
2023-05-06T01:30:03.255Z,7.800
2023-05-06T01:31:02.798Z,7.500
2023-05-06T01:32:03.073Z,7.500
2023-05-06T01:33:03.518Z,7.600
2023-05-06T01:34:02.909Z,7.100
2023-05-06T01:35:03.262Z,8.000
2023-05-06T01:36:02.692Z,7.400
2023-05-06T01:37:02.889Z,7.100
2023-05-06T01:38:03.047Z,7.500
2023-05-06T01:39:03.285Z,8.100
2023-05-06T01:40:02.480Z,8.200
2023-05-06T01:41:02.877Z,7.900
2023-05-06T01:42:03.148Z,8.400
2023-05-06T01:43:02.457Z,8.300
2023-05-06T01:44:02.678Z,7.800
2023-05-06T01:45:02.910Z,7.400
2023-05-06T01:46:02.551Z,8.900
2023-05-06T01:47:06.148Z,7.900
2023-05-06T01:51:03.288Z,8.100
2023-05-06T01:52:02.452Z,7.200
2023-05-06T01:53:02.703Z,8.300
2023-05-06T01:54:02.885Z,8.500
2023-05-06T01:55:03.122Z,9.100
2023-05-06T01:56:02.744Z,7.700
2023-05-06T01:57:02.986Z,8.300
2023-05-06T01:58:03.181Z,7.900
2023-05-06T01:59:04.524Z,9.400
2023-05-06T02:00:02.690Z,8.400
2023-05-06T02:01:02.816Z,8.700
2023-05-06T02:02:03.510Z,8.900
2023-05-06T02:03:02.701Z,9.100
2023-05-06T02:04:04.288Z,9.100
2023-05-06T02:05:02.657Z,8.900
2023-05-06T02:06:03.103Z,8.700
2023-05-06T02:07:02.288Z,9.500
2023-05-06T02:08:02.462Z,8.900
2023-05-06T02:09:02.918Z,8.500
2023-05-06T02:10:03.035Z,8.800
2023-05-06T02:11:02.229Z,9.000
2023-05-06T02:12:02.439Z,9.100
2023-05-06T02:13:03.156Z,8.900
2023-05-06T02:14:02.341Z,8.900
2023-05-06T02:15:02.535Z,9.600
2023-05-06T02:16:03.154Z,9.400
2023-05-06T02:17:05.443Z,9.300
2023-05-06T02:19:02.895Z,8.500
2023-05-06T02:20:03.131Z,9.400
2023-05-06T02:21:02.345Z,10.000
2023-05-06T02:22:02.512Z,8.700
2023-05-06T02:23:02.791Z,9.000
2023-05-06T02:24:02.986Z,9.300
2023-05-06T02:25:03.295Z,8.900
2023-05-06T02:26:02.950Z,9.200
2023-05-06T02:27:03.240Z,9.600
2023-05-06T02:28:02.518Z,9.200
2023-05-06T02:29:02.724Z,9.300
2023-05-06T02:30:02.899Z,9.600
2023-05-06T02:31:03.204Z,10.600
2023-05-06T02:32:02.805Z,9.400
2023-05-06T02:33:03.212Z,10.700
2023-05-06T02:34:02.398Z,10.900
2023-05-06T02:35:02.773Z,10.800
2023-05-06T02:36:03.262Z,10.500
2023-05-06T02:37:02.707Z,10.300
2023-05-06T02:38:02.889Z,10.000
2023-05-06T02:39:03.093Z,10.100
2023-05-06T02:40:03.239Z,11.300
2023-05-06T02:41:02.527Z,10.600
2023-05-06T02:42:02.785Z,11.000
2023-05-06T02:43:03.226Z,10.600
2023-05-06T02:44:02.469Z,10.500
2023-05-06T02:45:02.725Z,11.800
2023-05-06T02:46:03.367Z,10.900
2023-05-06T02:47:05.668Z,10.500
2023-05-06T02:48:02.931Z,11.000
2023-05-06T02:49:03.318Z,11.100
2023-05-06T02:50:02.439Z,11.300
2023-05-06T02:51:02.799Z,11.600
2023-05-06T02:52:03.034Z,10.300
2023-05-06T02:53:03.223Z,12.500
2023-05-06T02:54:02.382Z,11.600
2023-05-06T02:55:02.553Z,11.900
2023-05-06T02:56:02.943Z,10.700
2023-05-06T02:57:03.084Z,11.000
2023-05-06T02:58:02.335Z,11.000
2023-05-06T02:59:02.611Z,11.200
2023-05-06T03:00:02.840Z,13.800
2023-05-06T03:01:03.249Z,15.100
2023-05-06T03:02:02.482Z,13.900
2023-05-06T03:03:03.035Z,14.400
2023-05-06T03:04:02.499Z,14.700
2023-05-06T03:05:02.803Z,14.000
2023-05-06T03:06:03.158Z,14.200
2023-05-06T03:07:02.431Z,14.500
2023-05-06T03:08:02.676Z,14.400
2023-05-06T03:09:02.905Z,14.400
2023-05-06T03:10:03.148Z,14.200
2023-05-06T03:11:02.352Z,15.300
2023-05-06T03:12:02.630Z,16.100
2023-05-06T03:13:03.071Z,15.500
2023-05-06T03:14:02.571Z,15.200
2023-05-06T03:15:02.988Z,16.900
2023-05-06T03:16:03.212Z,15.400
2023-05-06T03:17:05.767Z,15.200
2023-05-06T03:20:02.644Z,17.900
2023-05-06T03:21:03.001Z,17.000
2023-05-06T03:22:02.378Z,15.800
2023-05-06T03:23:02.533Z,16.700
2023-05-06T03:24:02.797Z,15.700
2023-05-06T03:25:03.092Z,14.600
2023-05-06T03:26:02.311Z,14.600
2023-05-06T03:27:02.556Z,15.100
2023-05-06T03:28:02.731Z,13.800
2023-05-06T03:29:02.991Z,16.000
2023-05-06T03:30:03.202Z,15.600
2023-05-06T03:31:02.459Z,14.800
2023-05-06T03:32:03.342Z,14.600
2023-05-06T03:33:02.781Z,15.500
2023-05-06T03:34:03.132Z,16.900
2023-05-06T03:35:02.304Z,17.200
2023-05-06T03:36:02.456Z,18.800
2023-05-06T03:37:02.646Z,17.300
2023-05-06T03:38:02.857Z,16.200
2023-05-06T03:39:03.064Z,16.400
2023-05-06T03:40:02.282Z,16.900
2023-05-06T03:41:02.405Z,17.500
2023-05-06T03:42:02.698Z,17.000
2023-05-06T03:43:03.089Z,15.800
2023-05-06T03:44:02.280Z,17.400
2023-05-06T03:45:02.528Z,17.600
2023-05-06T03:46:02.945Z,18.100
2023-05-06T03:47:06.194Z,18.300
2023-05-06T03:48:03.974Z,18.600
2023-05-06T03:49:02.266Z,19.500
2023-05-06T03:50:02.441Z,20.100
2023-05-06T03:51:02.778Z,19.600
2023-05-06T03:52:02.908Z,19.500
2023-05-06T03:53:03.246Z,18.900
2023-05-06T03:54:02.745Z,21.000
2023-05-06T03:55:02.956Z,21.900
2023-05-06T03:56:02.307Z,20.100
2023-05-06T03:57:02.613Z,21.400
2023-05-06T03:58:02.784Z,21.000
2023-05-06T03:59:03.023Z,21.500
2023-05-06T04:00:03.211Z,22.900
2023-05-06T04:01:02.449Z,22.700
2023-05-06T04:02:03.019Z,20.800
2023-05-06T04:03:02.707Z,21.700
2023-05-06T04:04:03.415Z,21.500
2023-05-06T04:05:02.791Z,22.000
2023-05-06T04:06:02.992Z,23.300
2023-05-06T04:07:03.176Z,23.800
2023-05-06T04:08:02.354Z,23.500
2023-05-06T04:09:02.566Z,22.900
2023-05-06T04:10:02.875Z,21.900
2023-05-06T04:11:03.091Z,22.900
2023-05-06T04:12:02.420Z,22.600
2023-05-06T04:13:03.129Z,24.600
2023-05-06T04:14:02.464Z,23.500
2023-05-06T04:15:02.777Z,23.400
2023-05-06T04:16:03.113Z,22.800
2023-05-06T04:17:05.413Z,22.900
2023-05-06T04:18:02.845Z,22.000
2023-05-06T04:19:05.743Z,22.800
2023-05-06T04:20:02.558Z,22.900
2023-05-06T04:21:02.751Z,23.100
2023-05-06T04:22:02.983Z,23.600
2023-05-06T04:23:03.192Z,22.400
2023-05-06T04:24:02.748Z,21.800
2023-05-06T04:25:03.015Z,21.700
2023-05-06T04:26:03.471Z,21.800
2023-05-06T04:27:02.746Z,22.900
2023-05-06T04:28:02.965Z,21.800
2023-05-06T04:29:03.458Z,22.800
2023-05-06T04:30:02.613Z,24.100
2023-05-06T04:31:02.798Z,23.600
2023-05-06T04:32:04.022Z,23.600
2023-05-06T04:33:02.663Z,24.900
2023-05-06T04:34:02.977Z,25.900
2023-05-06T04:35:03.228Z,23.900
2023-05-06T04:36:02.516Z,24.500
2023-05-06T04:37:02.783Z,25.100
2023-05-06T04:38:03.271Z,24.800
2023-05-06T04:39:02.544Z,24.600
2023-05-06T04:40:02.784Z,25.000
2023-05-06T04:41:02.994Z,24.400
2023-05-06T04:42:03.287Z,23.500
2023-05-06T04:43:02.521Z,24.700
2023-05-06T04:44:02.734Z,24.400
2023-05-06T04:45:02.907Z,24.000
2023-05-06T04:46:03.608Z,24.800
2023-05-06T04:47:05.810Z,25.100
2023-05-06T04:49:02.411Z,24.200
2023-05-06T04:50:02.596Z,23.900
2023-05-06T04:51:02.768Z,24.700
2023-05-06T04:52:02.904Z,25.000
2023-05-06T04:53:03.090Z,24.300
2023-05-06T04:54:02.268Z,24.200
2023-05-06T04:55:02.421Z,25.200
2023-05-06T04:56:02.739Z,24.500
2023-05-06T04:57:02.922Z,25.000
2023-05-06T04:58:03.117Z,24.400
2023-05-06T04:59:02.273Z,25.700
2023-05-06T05:00:02.435Z,24.500
2023-05-06T05:01:02.890Z,23.400
2023-05-06T05:02:03.462Z,24.200
2023-05-06T05:03:03.275Z,23.400
2023-05-06T05:04:02.843Z,22.900
2023-05-06T05:05:02.973Z,23.200
2023-05-06T05:06:03.219Z,24.400
2023-05-06T05:07:02.387Z,22.600
2023-05-06T05:08:02.484Z,22.500
2023-05-06T05:09:04.924Z,22.700
2023-05-06T05:10:03.072Z,20.700
2023-05-06T05:11:03.315Z,21.100
2023-05-06T05:12:02.536Z,22.900
2023-05-06T05:13:02.994Z,21.600
2023-05-06T05:14:05.137Z,23.700
2023-05-06T05:15:02.259Z,23.300
2023-05-06T05:16:13.655Z,22.200
2023-05-06T05:17:17.192Z,23.800
2023-05-06T05:18:16.512Z,22.800
2023-05-06T05:19:19.335Z,23.800
2023-05-06T05:21:16.798Z,22.900
2023-05-06T05:22:52.288Z,21.400
2023-05-06T05:24:40.446Z,22.900
2023-05-06T05:25:42.279Z,21.500
2023-05-06T05:26:40.413Z,24.500
2023-05-06T05:27:40.639Z,23.600
2023-05-06T05:28:40.814Z,22.700
2023-05-06T05:29:41.111Z,23.300
2023-05-06T05:30:41.507Z,24.900
2023-05-06T05:31:40.898Z,22.700
2023-05-06T05:32:41.379Z,21.000
2023-05-06T05:33:40.817Z,21.100
2023-05-06T05:34:41.100Z,21.800
2023-05-06T05:35:41.475Z,22.700
2023-05-06T05:36:40.589Z,20.400
2023-05-06T05:37:40.819Z,20.900
2023-05-06T05:38:40.953Z,21.000
2023-05-06T05:39:41.219Z,20.500
2023-05-06T05:40:40.349Z,20.400
2023-05-06T05:41:40.559Z,21.100
2023-05-06T05:42:40.807Z,19.600
2023-05-06T05:43:40.943Z,20.800
2023-05-06T05:44:41.088Z,17.000
2023-05-06T05:45:54.865Z,20.700
2023-05-06T05:46:59.400Z,17.700
2023-05-06T05:47:58.641Z,18.900
2023-05-06T05:48:58.844Z,19.400
2023-05-06T05:49:59.351Z,17.400
2023-05-06T05:50:58.560Z,16.900
2023-05-06T05:51:58.764Z,17.900
2023-05-06T05:52:58.960Z,16.400
2023-05-06T05:53:59.173Z,16.700
2023-05-06T05:54:58.357Z,17.200
2023-05-06T05:55:59.420Z,16.200
2023-05-06T05:56:58.889Z,16.500
2023-05-06T05:59:38.138Z,15.400
2023-05-06T06:00:37.299Z,16.300
2023-05-06T06:01:37.461Z,16.300
2023-05-06T06:02:38.186Z,17.700
2023-05-06T06:03:38.329Z,15.900
2023-05-06T06:04:38.302Z,16.800
2023-05-06T06:06:37.680Z,16.300
2023-05-06T06:07:37.842Z,15.500
2023-05-06T06:08:38.014Z,16.100
2023-05-06T06:09:38.290Z,15.600
2023-05-06T06:10:37.479Z,15.000
2023-05-06T06:11:39.099Z,14.000
2023-05-06T06:12:37.373Z,15.100
2023-05-06T06:13:37.907Z,14.200
2023-05-06T06:14:38.090Z,14.600
2023-05-06T06:15:37.230Z,15.500
2023-05-06T06:16:37.722Z,16.000
2023-05-06T06:17:38.448Z,14.200
2023-05-06T06:18:37.704Z,15.600
2023-05-06T06:19:37.924Z,14.900
2023-05-06T06:20:38.128Z,15.800
2023-05-06T06:21:37.306Z,15.200
2023-05-06T06:22:37.719Z,15.000
2023-05-06T06:23:37.883Z,15.000
2023-05-06T06:24:38.096Z,13.100
2023-05-06T06:26:37.426Z,13.500
2023-05-06T06:27:37.588Z,13.500
2023-05-06T06:28:37.799Z,13.300
2023-05-06T06:29:37.940Z,13.000
2023-05-06T06:30:38.094Z,14.100
2023-05-06T06:31:40.316Z,14.300
2023-05-06T06:32:38.355Z,13.700
2023-05-06T06:33:37.633Z,14.200
2023-05-06T06:34:37.837Z,14.100
2023-05-06T06:35:37.979Z,13.600
2023-05-06T06:36:38.158Z,13.100
2023-05-06T06:37:37.296Z,14.100
2023-05-06T06:38:37.537Z,14.400
2023-05-06T06:39:37.727Z,13.400
2023-05-06T06:40:38.010Z,14.500
2023-05-06T06:41:38.179Z,12.700
2023-05-06T06:42:38.055Z,13.400
2023-05-06T06:43:38.267Z,13.600
2023-05-06T06:44:37.428Z,13.500
2023-05-06T06:45:37.670Z,13.700
2023-05-06T06:46:38.015Z,14.200
2023-05-06T06:47:38.410Z,15.100
2023-05-06T06:48:37.700Z,15.300
2023-05-06T06:49:37.865Z,13.800
2023-05-06T06:50:38.074Z,15.300
2023-05-06T06:51:38.405Z,14.900
2023-05-06T06:52:37.530Z,15.100
2023-05-06T06:53:37.769Z,15.400
2023-05-06T06:54:38.166Z,14.300
2023-05-06T06:55:37.331Z,14.200
2023-05-06T06:56:37.486Z,14.000
2023-05-06T06:57:37.708Z,14.200
2023-05-06T06:58:37.848Z,13.300
2023-05-06T06:59:38.003Z,13.900
2023-05-06T07:00:38.211Z,14.200
2023-05-06T07:01:37.765Z,12.700
2023-05-06T07:02:38.336Z,13.500
2023-05-06T07:03:37.644Z,14.600
2023-05-06T07:04:38.185Z,15.200
2023-05-06T07:05:37.664Z,15.500
2023-05-06T07:06:38.052Z,15.500
2023-05-06T07:07:38.220Z,15.400
2023-05-06T07:08:37.303Z,13.900
2023-05-06T07:09:42.804Z,14.000
2023-05-06T07:10:38.230Z,14.800
2023-05-06T07:15:38.248Z,15.800
2023-05-06T07:16:37.716Z,13.800
2023-05-06T07:17:38.557Z,14.400
2023-05-06T07:18:37.849Z,14.300
2023-05-06T07:19:38.016Z,14.700
2023-05-06T07:20:38.206Z,14.600
2023-05-06T07:21:37.445Z,15.800
2023-05-06T07:22:37.865Z,14.900
2023-05-06T07:23:39.909Z,15.400
2023-05-06T07:24:38.147Z,14.800
2023-05-06T07:25:37.335Z,16.500
2023-05-06T07:26:37.494Z,16.100
2023-05-06T07:27:37.660Z,16.200
2023-05-06T07:28:37.848Z,16.500
2023-05-06T07:29:38.351Z,17.000
2023-05-06T07:30:37.547Z,14.700
2023-05-06T07:31:38.059Z,15.300
2023-05-06T07:32:37.476Z,14.400
2023-05-06T07:33:37.842Z,16.300
2023-05-06T07:34:37.982Z,14.700
2023-05-06T07:35:38.182Z,15.200
2023-05-06T07:36:39.394Z,15.900
2023-05-06T07:37:38.274Z,15.300
2023-05-06T07:38:37.527Z,16.200
2023-05-06T07:39:37.707Z,15.400
2023-05-06T07:40:37.912Z,17.500
2023-05-06T07:41:38.097Z,16.300
2023-05-06T07:42:37.334Z,14.700
2023-05-06T07:43:37.600Z,14.200
2023-05-06T07:44:37.775Z,15.500
2023-05-06T07:45:37.979Z,15.800
2023-05-06T07:46:39.281Z,15.100
2023-05-06T07:47:38.288Z,15.300
2023-05-06T07:48:38.231Z,13.900
2023-05-06T07:49:37.371Z,14.100
2023-05-06T07:50:37.926Z,15.600
2023-05-06T07:51:38.081Z,15.900
2023-05-06T07:52:37.256Z,13.700
2023-05-06T07:53:37.381Z,13.900
2023-05-06T07:54:37.587Z,15.200
2023-05-06T07:55:40.354Z,15.000
2023-05-06T07:57:37.626Z,16.100
2023-05-06T07:58:37.793Z,15.700
2023-05-06T07:59:38.008Z,14.600
2023-05-06T08:00:38.186Z,15.500
2023-05-06T08:01:37.431Z,15.300
2023-05-06T08:02:38.328Z,16.800
2023-05-06T08:03:38.500Z,16.300
2023-05-06T08:04:38.612Z,16.000
2023-05-06T08:05:38.167Z,15.200
2023-05-06T08:06:37.387Z,15.200
2023-05-06T08:07:37.575Z,15.500
2023-05-06T08:08:37.755Z,15.600
2023-05-06T08:09:37.919Z,15.700
2023-05-06T08:10:39.069Z,15.100
2023-05-06T08:11:38.234Z,15.200
2023-05-06T08:12:37.575Z,14.000
2023-05-06T08:13:37.758Z,14.200
2023-05-06T08:14:37.951Z,14.700
2023-05-06T08:15:38.102Z,12.900
2023-05-06T08:16:38.595Z,15.100
2023-05-06T08:17:38.102Z,14.500
2023-05-06T08:18:37.502Z,14.300
2023-05-06T08:19:37.625Z,14.500
2023-05-06T08:20:37.866Z,14.000
2023-05-06T08:21:37.970Z,14.400
2023-05-06T08:22:38.189Z,14.200
2023-05-06T08:23:37.395Z,14.600
2023-05-06T08:24:37.543Z,13.700
2023-05-06T08:25:37.732Z,13.900
2023-05-06T08:26:37.954Z,12.600
2023-05-06T08:27:38.071Z,13.700
2023-05-06T08:28:38.247Z,13.500
2023-05-06T08:29:38.983Z,14.000
2023-05-06T08:30:39.071Z,13.200
2023-05-06T08:31:39.380Z,12.200
2023-05-06T08:32:37.806Z,12.900
2023-05-06T08:33:38.036Z,13.300
2023-05-06T08:34:38.210Z,12.500
2023-05-06T08:35:38.022Z,11.900
2023-05-06T08:36:38.188Z,10.900
2023-05-06T08:37:37.451Z,11.400
2023-05-06T08:38:38.761Z,11.600
2023-05-06T08:39:38.845Z,12.400
2023-05-06T08:40:39.020Z,10.900
2023-05-06T08:41:39.006Z,11.900
2023-05-06T08:42:39.089Z,11.400
2023-05-06T08:43:37.347Z,9.900
2023-05-06T08:44:39.374Z,10.200
2023-05-06T08:45:41.276Z,9.400
2023-05-06T08:46:38.747Z,11.300
2023-05-06T08:47:38.144Z,10.300
2023-05-06T08:48:37.627Z,11.100
2023-05-06T08:49:38.727Z,10.200
2023-05-06T08:50:38.800Z,10.100
2023-05-06T08:51:38.910Z,10.400
2023-05-06T08:52:39.016Z,10.900
2023-05-06T08:53:39.103Z,10.800
2023-05-06T08:54:38.131Z,10.800
2023-05-06T08:55:37.370Z,10.600
2023-05-06T08:56:37.574Z,10.500
2023-05-06T08:57:37.777Z,11.500
2023-05-06T08:58:37.997Z,11.200
2023-05-06T08:59:38.328Z,10.400
2023-05-06T09:00:38.753Z,10.300
2023-05-06T09:01:39.131Z,10.700
2023-05-06T09:02:40.509Z,11.300
2023-05-06T09:03:39.595Z,10.300
2023-05-06T09:04:39.088Z,10.800
2023-05-06T09:05:39.176Z,10.300
2023-05-06T09:06:37.326Z,11.000
2023-05-06T09:07:37.594Z,9.000
2023-05-06T09:08:37.899Z,9.400
2023-05-06T09:09:38.148Z,9.100
2023-05-06T09:10:37.678Z,8.200
2023-05-06T09:11:38.620Z,7.900
2023-05-06T09:12:37.987Z,8.200
2023-05-06T09:13:38.232Z,8.400
2023-05-06T09:14:38.030Z,7.800
2023-05-06T09:15:39.108Z,9.500
2023-05-06T09:16:37.501Z,8.700
2023-05-06T09:17:38.207Z,9.100
2023-05-06T09:18:37.819Z,8.000
2023-05-06T09:19:38.142Z,8.300
2023-05-06T09:20:37.655Z,8.600
2023-05-06T09:21:38.678Z,8.600
2023-05-06T09:22:38.839Z,9.100
2023-05-06T09:23:38.918Z,8.400
2023-05-06T09:24:39.049Z,7.300
2023-05-06T09:25:38.179Z,6.100
2023-05-06T09:26:39.412Z,6.000
2023-05-06T09:27:37.642Z,5.400
2023-05-06T09:28:37.868Z,5.700
2023-05-06T09:29:38.082Z,5.800
2023-05-06T09:30:38.202Z,6.100
2023-05-06T09:31:39.152Z,5.800
2023-05-06T09:32:42.759Z,6.700
2023-05-06T09:34:38.930Z,5.700
2023-05-06T09:35:38.106Z,6.000
2023-05-06T09:36:38.034Z,7.200
2023-05-06T09:37:39.172Z,6.900
2023-05-06T09:38:37.869Z,6.600
2023-05-06T09:39:38.078Z,7.100
2023-05-06T09:40:38.237Z,7.100
2023-05-06T09:41:37.503Z,6.800
2023-05-06T09:42:38.623Z,7.100
2023-05-06T09:43:38.696Z,6.600
2023-05-06T09:44:38.800Z,6.800
2023-05-06T09:45:38.907Z,7.700
2023-05-06T09:46:39.374Z,7.600
2023-05-06T09:47:39.426Z,6.800
2023-05-06T09:48:39.124Z,6.900
2023-05-06T09:49:39.238Z,6.500
2023-05-06T09:53:38.553Z,6.800
2023-05-06T09:54:38.658Z,6.100
2023-05-06T09:55:38.723Z,5.400
2023-05-06T09:56:38.790Z,6.400
2023-05-06T09:57:38.901Z,6.400
2023-05-06T09:58:39.123Z,5.600
2023-05-06T09:59:37.715Z,7.100
2023-05-06T10:00:39.123Z,4.400
2023-05-06T10:01:42.912Z,4.500
2023-05-06T10:03:39.252Z,4.400
2023-05-06T10:04:38.988Z,4.700
2023-05-06T10:05:38.956Z,4.500
2023-05-06T10:06:38.167Z,4.500
2023-05-06T10:07:37.798Z,5.100
2023-05-06T10:08:38.860Z,3.600
2023-05-06T10:09:39.016Z,4.600
2023-05-06T10:10:39.063Z,4.100
2023-05-06T10:11:39.467Z,5.000
2023-05-06T10:12:39.466Z,4.800
2023-05-06T10:13:37.736Z,4.400
2023-05-06T10:14:37.929Z,4.700
2023-05-06T10:15:38.095Z,4.300
2023-05-06T10:16:37.964Z,4.500
2023-05-06T10:17:38.187Z,4.300
2023-05-06T10:18:38.862Z,4.600
2023-05-06T10:19:38.931Z,5.000
2023-05-06T10:20:39.024Z,5.300
2023-05-06T10:21:39.108Z,4.200
2023-05-06T10:22:37.816Z,4.200
2023-05-06T10:23:38.086Z,4.500
2023-05-06T10:24:38.359Z,3.400
2023-05-06T10:25:37.891Z,3.100
2023-05-06T10:26:38.128Z,2.800
2023-05-06T10:27:37.268Z,3.300
2023-05-06T10:28:42.916Z,3.300
2023-05-06T10:29:38.136Z,3.200
2023-05-06T10:30:37.246Z,2.600
2023-05-06T10:31:37.735Z,3.200
2023-05-06T10:32:38.363Z,3.200
2023-05-06T10:33:37.545Z,3.400
2023-05-06T10:34:37.972Z,3.800
2023-05-06T10:35:38.157Z,3.800
2023-05-06T10:36:37.418Z,3.300
2023-05-06T10:37:37.543Z,3.200
2023-05-06T10:38:37.821Z,3.100
2023-05-06T10:39:39.860Z,3.000
2023-05-06T10:40:37.934Z,3.100
2023-05-06T10:41:38.145Z,5.300
2023-05-06T10:42:37.322Z,4.200
2023-05-06T10:43:37.459Z,4.300
2023-05-06T10:44:37.719Z,4.600
2023-05-06T10:45:38.161Z,3.400
2023-05-06T10:46:37.425Z,3.500
2023-05-06T10:47:37.792Z,3.400
2023-05-06T10:48:38.052Z,3.700
2023-05-06T10:49:38.404Z,3.200
2023-05-06T10:50:37.540Z,3.300
2023-05-06T10:51:37.792Z,3.300
2023-05-06T10:52:37.983Z,3.600
2023-05-06T10:53:38.208Z,3.400
2023-05-06T10:54:37.366Z,3.400
2023-05-06T10:55:37.729Z,3.000
2023-05-06T10:56:38.022Z,3.000
2023-05-06T10:57:38.725Z,3.000
2023-05-06T10:58:37.886Z,3.300
2023-05-06T10:59:38.123Z,2.700
2023-05-06T11:00:37.313Z,3.100
2023-05-06T11:01:38.099Z,2.600
2023-05-06T11:02:38.003Z,2.800
2023-05-06T11:03:37.756Z,2.500
2023-05-06T11:04:37.956Z,2.200
2023-05-06T11:05:38.088Z,2.700
2023-05-06T11:06:38.322Z,2.200
2023-05-06T11:07:37.485Z,2.800
2023-05-06T11:08:37.674Z,2.500
2023-05-06T11:09:37.810Z,2.700
2023-05-06T11:10:38.014Z,2.700
2023-05-06T11:11:38.280Z,2.900
2023-05-06T11:12:37.536Z,2.700
2023-05-06T11:13:38.117Z,2.600
2023-05-06T11:14:37.258Z,2.400
2023-05-06T11:15:37.551Z,2.200
2023-05-06T11:16:41.275Z,2.400
2023-05-06T11:17:37.746Z,2.300
2023-05-06T11:18:38.042Z,2.500
2023-05-06T11:19:38.311Z,2.200
2023-05-06T11:20:37.489Z,2.500
2023-05-06T11:21:37.666Z,2.100
2023-05-06T11:22:37.864Z,2.600
2023-05-06T11:23:38.032Z,2.500
2023-05-06T11:24:38.292Z,4.100
2023-05-06T11:25:37.446Z,4.600
2023-05-06T11:26:37.799Z,4.800
2023-05-06T11:27:37.987Z,4.800
2023-05-06T11:28:38.161Z,4.300
2023-05-06T11:29:37.266Z,4.200
2023-05-06T11:30:37.519Z,3.100
2023-05-06T11:31:38.239Z,2.900
2023-05-06T11:32:37.622Z,2.700
2023-05-06T11:33:37.889Z,2.200
2023-05-06T11:34:38.151Z,2.000
2023-05-06T11:35:37.322Z,1.700
2023-05-06T11:36:37.538Z,1.900
2023-05-06T11:37:38.181Z,1.900
2023-05-06T11:38:37.646Z,2.200
2023-05-06T11:39:43.852Z,1.500
2023-05-06T11:42:37.701Z,2.400
2023-05-06T11:43:37.870Z,2.400
2023-05-06T11:44:38.014Z,2.300
2023-05-06T11:45:38.210Z,2.400
2023-05-06T11:46:37.575Z,2.600
2023-05-06T11:47:38.258Z,2.500
2023-05-06T11:48:37.530Z,2.200
2023-05-06T11:49:39.595Z,2.400
2023-05-06T11:50:37.727Z,1.900
2023-05-06T11:51:37.928Z,2.300
2023-05-06T11:52:38.163Z,2.100
2023-05-06T11:53:37.363Z,2.500
2023-05-06T11:54:37.501Z,2.100
2023-05-06T11:55:37.941Z,2.300
2023-05-06T11:56:38.077Z,2.200
2023-05-06T11:57:38.444Z,2.200
2023-05-06T11:58:37.787Z,2.300
2023-05-06T11:59:37.994Z,2.500
2023-05-06T12:00:38.195Z,2.600
2023-05-06T12:01:37.368Z,1.800
2023-05-06T12:02:38.053Z,2.300
2023-05-06T12:03:38.668Z,2.400
2023-05-06T12:04:38.721Z,2.600
2023-05-06T12:05:38.115Z,2.800
2023-05-06T12:06:37.242Z,2.100
2023-05-06T12:07:37.408Z,2.600
2023-05-06T12:08:40.154Z,2.400
2023-05-06T12:10:37.703Z,2.500
2023-05-06T12:11:37.925Z,2.100
2023-05-06T12:12:38.497Z,2.100
2023-05-06T12:13:37.818Z,2.300
2023-05-06T12:14:38.048Z,2.000
2023-05-06T12:15:38.304Z,2.000
2023-05-06T12:16:37.808Z,2.100
2023-05-06T12:17:38.328Z,1.800
2023-05-06T12:18:37.613Z,2.000
2023-05-06T12:19:37.725Z,2.000
2023-05-06T12:20:38.186Z,2.000
2023-05-06T12:21:37.342Z,1.700
2023-05-06T12:22:37.714Z,1.400
2023-05-06T12:23:37.705Z,1.400
2023-05-06T12:24:37.229Z,1.600
2023-05-06T12:25:37.376Z,1.800
2023-05-06T12:26:37.520Z,1.900
2023-05-06T12:27:37.663Z,1.700
2023-05-06T12:28:37.940Z,1.300
2023-05-06T12:29:38.133Z,1.400
2023-05-06T12:30:37.309Z,1.300
2023-05-06T12:31:37.705Z,1.100
2023-05-06T12:32:38.346Z,1.500
2023-05-06T12:33:37.587Z,1.600
2023-05-06T12:34:37.744Z,1.700
2023-05-06T12:35:37.984Z,1.300
2023-05-06T12:36:38.198Z,1.700
2023-05-06T12:37:37.340Z,1.800
2023-05-06T12:38:37.526Z,1.400
2023-05-06T12:39:37.947Z,1.700
2023-05-06T12:40:38.369Z,1.600
2023-05-06T12:41:37.498Z,1.700
2023-05-06T12:42:37.761Z,1.800
2023-05-06T12:43:38.056Z,1.700
2023-05-06T12:44:38.258Z,2.000
2023-05-06T12:45:37.657Z,1.700
2023-05-06T12:46:38.208Z,1.500
2023-05-06T12:47:38.338Z,2.500
2023-05-06T12:48:37.587Z,2.100
2023-05-06T12:49:37.711Z,2.100
2023-05-06T12:50:37.892Z,1.800
2023-05-06T12:51:38.148Z,1.600
2023-05-06T12:52:37.341Z,1.700
2023-05-06T12:53:37.535Z,1.800
2023-05-06T12:54:37.789Z,1.800
2023-05-06T12:55:37.942Z,1.600
2023-05-06T12:56:38.150Z,1.900
2023-05-06T12:57:37.351Z,1.600
2023-05-06T12:58:37.626Z,1.300
2023-05-06T12:59:37.846Z,1.500
2023-05-06T13:00:38.067Z,1.300
2023-05-06T13:01:37.476Z,1.300
2023-05-06T13:02:38.517Z,1.300
2023-05-06T13:03:41.323Z,1.400
2023-05-06T13:04:37.580Z,1.700
2023-05-06T13:05:37.747Z,1.700
2023-05-06T13:06:37.941Z,1.300
2023-05-06T13:07:38.207Z,1.100
2023-05-06T13:08:37.453Z,1.400
2023-05-06T13:09:37.551Z,1.200
2023-05-06T13:10:37.779Z,1.200
2023-05-06T13:11:37.892Z,1.600
2023-05-06T13:12:38.365Z,1.500